Time;durP1;ratioP1;P1;durP2;ratioP2;P2;SDS_P1;SDS_P2;PMS_P1;PMS_P2;Temp;Humidity;BMP_temperature;BMP_pressure;BME280_temperature;BME280_humidity;BME280_pressure;Samples;Min_cycle;Max_cycle;Signal;HPM_P1;HPM_P2
2021/05/23 00:00:39;;;;;;;7.88;2.70;;;9.30;99.90;;;;;;5119009;28;20446;-67
2021/05/23 00:03:10;;;;;;;4.68;3.28;;;9.30;99.90;;;;;;5119476;28;20031;-67
2021/05/23 00:05:39;;;;;;;4.13;2.50;;;9.30;99.90;;;;;;5118771;28;20070;-67
2021/05/23 00:08:16;;;;;;;4.43;2.50;;;9.30;99.90;;;;;;5119289;28;20023;-67
2021/05/23 00:11:13;;;;;;;5.50;2.25;;;9.30;99.90;;;;;;5118800;28;20019;-67
2021/05/23 00:13:43;;;;;;;;;;;9.20;99.90;;;;;;5101261;28;20487;-67
2021/05/23 00:16:23;;;;;;;4.65;2.88;;;9.20;99.90;;;;;;5118987;28;19927;-67
2021/05/23 00:18:53;;;;;;;4.10;2.90;;;9.20;99.90;;;;;;5119316;28;20024;-67
2021/05/23 00:21:26;;;;;;;4.65;2.03;;;9.20;99.90;;;;;;5118032;28;20088;-67
2021/05/23 00:23:54;;;;;;;6.32;2.70;;;9.20;99.90;;;;;;5119938;28;20024;-67
2021/05/23 00:26:22;;;;;;;5.00;2.40;;;9.20;99.90;;;;;;5119884;28;20019;-67
2021/05/23 00:28:50;;;;;;;6.72;2.47;;;9.20;99.90;;;;;;5119347;28;20019;-67
2021/05/23 00:31:18;;;;;;;6.55;2.22;;;9.20;99.90;;;;;;5101196;28;20024;-67
2021/05/23 00:33:46;;;;;;;5.63;2.13;;;9.10;99.90;;;;;;5101335;28;20028;-67
2021/05/23 00:36:14;;;;;;;2.83;1.85;;;9.10;99.90;;;;;;5119695;28;20027;-67
2021/05/23 00:38:43;;;;;;;4.82;2.40;;;9.10;99.90;;;;;;5119270;28;20027;-67
2021/05/23 00:41:11;;;;;;;5.35;2.22;;;9.10;99.90;;;;;;5118723;28;20016;-67
2021/05/23 00:43:39;;;;;;;3.25;1.85;;;9.10;99.90;;;;;;5118946;28;20353;-67
2021/05/23 00:46:07;;;;;;;5.05;2.40;;;9.10;99.90;;;;;;5117982;28;20106;-67
2021/05/23 00:48:35;;;;;;;8.43;2.38;;;9.10;99.90;;;;;;5118654;28;20028;-67
2021/05/23 00:51:04;;;;;;;4.70;2.47;;;9.00;99.90;;;;;;5117943;28;20023;-67
2021/05/23 00:53:32;;;;;;;4.20;2.53;;;9.00;99.90;;;;;;5118594;28;20039;-67
2021/05/23 00:56:00;;;;;;;6.05;2.85;;;9.10;99.90;;;;;;5099831;28;20331;-67
2021/05/23 00:58:29;;;;;;;6.32;3.05;;;9.10;99.90;;;;;;5117850;28;20343;-67
2021/05/23 01:00:57;;;;;;;4.60;2.70;;;9.10;99.90;;;;;;5117886;28;20031;-67
2021/05/23 01:03:28;;;;;;;6.68;2.80;;;9.20;99.90;;;;;;5119364;28;20072;-67
2021/05/23 01:06:01;;;;;;;7.22;2.60;;;9.20;99.90;;;;;;5119032;28;20454;-67
2021/05/23 01:08:29;;;;;;;3.65;2.33;;;9.20;99.90;;;;;;5118944;28;20407;-67
2021/05/23 01:11:30;;;;;;;4.80;2.40;;;9.20;99.90;;;;;;5119058;28;20026;-67
2021/05/23 01:14:00;;;;;;;6.25;2.60;;;9.10;99.90;;;;;;5118737;28;20019;-67
2021/05/23 01:16:40;;;;;;;7.85;3.00;;;9.10;99.90;;;;;;5118991;28;20024;-67
2021/05/23 01:19:29;;;;;;;6.45;2.58;;;9.10;99.90;;;;;;5100375;28;20030;-67
2021/05/23 01:22:38;;;;;;;5.80;2.47;;;9.10;99.90;;;;;;5117459;28;20319;-67
2021/05/23 01:25:09;;;;;;;5.15;2.60;;;9.10;99.90;;;;;;5015361;28;20036;-67
2021/05/23 01:27:38;;;;;;;4.43;2.95;;;9.10;99.90;;;;;;5105286;28;20077;-67
2021/05/23 01:30:10;;;;;;;5.40;2.63;;;9.10;99.90;;;;;;5117258;28;20076;-67
2021/05/23 01:32:38;;;;;;;6.68;3.30;;;9.20;99.90;;;;;;5116935;28;20103;-67
2021/05/23 01:35:12;;;;;;;6.22;2.60;;;9.10;99.90;;;;;;5117630;28;20098;-67
2021/05/23 01:37:40;;;;;;;6.22;2.50;;;9.20;99.90;;;;;;5117143;28;20024;-67
2021/05/23 01:40:08;;;;;;;5.38;2.70;;;9.20;99.90;;;;;;5117365;28;20023;-67
2021/05/23 01:42:35;;;;;;;3.92;2.25;;;9.20;99.90;;;;;;5117804;28;20020;-67
2021/05/23 01:45:04;;;;;;;4.22;2.22;;;9.20;99.90;;;;;;5118270;28;20024;-67
2021/05/23 01:47:31;;;;;;;5.03;2.75;;;9.20;99.90;;;;;;5118039;28;20024;-67
2021/05/23 01:49:59;;;;;;;4.15;2.50;;;9.20;99.90;;;;;;5118707;28;20019;-67
2021/05/23 01:52:26;;;;;;;9.52;2.03;;;9.20;99.90;;;;;;5117957;28;20029;-67
2021/05/23 01:54:55;;;;;;;5.05;2.58;;;9.20;99.90;;;;;;5117824;28;20463;-67
2021/05/23 01:57:22;;;;;;;5.55;3.17;;;9.20;99.90;;;;;;5118438;28;20034;-67
2021/05/23 01:59:50;;;;;;;5.43;2.22;;;9.30;99.90;;;;;;5118098;28;20027;-67
2021/05/23 02:02:18;;;;;;;5.10;2.58;;;9.30;99.90;;;;;;5117015;28;20030;-67
2021/05/23 02:04:46;;;;;;;3.42;2.22;;;9.30;99.90;;;;;;5116855;28;20069;-67
2021/05/23 02:07:13;;;;;;;4.50;2.92;;;9.30;99.90;;;;;;5116720;28;20016;-67
2021/05/23 02:09:41;;;;;;;7.82;2.63;;;9.30;99.90;;;;;;5117615;28;20475;-67
2021/05/23 02:12:09;;;;;;;4.88;2.70;;;9.30;99.90;;;;;;5116883;28;20051;-67
2021/05/23 02:14:37;;;;;;;6.72;2.90;;;9.20;99.90;;;;;;5117455;28;20019;-67
2021/05/23 02:17:05;;;;;;;7.32;3.05;;;9.20;99.90;;;;;;5098752;28;20031;-67
2021/05/23 02:19:33;;;;;;;8.35;2.60;;;9.20;99.90;;;;;;5116955;28;20030;-67
2021/05/23 02:22:01;;;;;;;5.50;2.75;;;9.20;99.90;;;;;;5098625;28;20020;-67
2021/05/23 02:24:29;;;;;;;5.47;3.40;;;9.10;99.90;;;;;;5099579;28;20058;-67
2021/05/23 02:26:57;;;;;;;3.80;2.90;;;9.10;99.90;;;;;;5117591;28;20093;-67
2021/05/23 02:29:25;;;;;;;5.47;2.83;;;9.10;99.90;;;;;;5118344;28;20470;-67
2021/05/23 02:31:52;;;;;;;6.18;3.63;;;9.10;99.90;;;;;;5099565;28;20502;-67
2021/05/23 02:34:19;;;;;;;7.20;3.17;;;9.10;99.90;;;;;;5117862;28;20309;-67
2021/05/23 02:36:47;;;;;;;5.72;3.33;;;9.00;99.90;;;;;;5082540;28;20051;-67
2021/05/23 02:39:15;;;;;;;7.20;3.50;;;9.00;99.90;;;;;;5117554;28;20047;-67
2021/05/23 02:41:42;;;;;;;5.20;3.47;;;8.90;99.90;;;;;;5117925;28;20020;-67
2021/05/23 02:44:10;;;;;;;6.25;3.22;;;9.00;99.90;;;;;;5117537;28;20020;-67
2021/05/23 02:46:38;;;;;;;7.53;3.60;;;8.90;99.90;;;;;;5120382;28;20107;-67
2021/05/23 02:49:06;;;;;;;5.93;3.53;;;8.90;99.90;;;;;;5120411;28;20072;-67
2021/05/23 02:51:34;;;;;;;6.97;4.20;;;8.90;99.90;;;;;;5120236;28;20365;-67
2021/05/23 02:54:02;;;;;;;5.20;3.88;;;8.90;99.90;;;;;;5120555;28;20046;-67
2021/05/23 02:56:29;;;;;;;6.88;4.30;;;8.90;99.90;;;;;;5120261;28;20072;-67
2021/05/23 02:58:57;;;;;;;6.60;4.38;;;9.00;99.90;;;;;;5120238;28;20024;-67
2021/05/23 03:01:25;;;;;;;6.78;4.43;;;9.00;99.90;;;;;;5120175;28;20064;-67
2021/05/23 03:03:52;;;;;;;7.05;4.68;;;9.00;99.90;;;;;;5121056;28;20031;-67
2021/05/23 03:06:20;;;;;;;6.75;5.35;;;9.00;99.90;;;;;;5102665;28;20023;-67
2021/05/23 03:08:48;;;;;;;7.57;5.25;;;9.00;99.90;;;;;;5121533;28;20016;-67
2021/05/23 03:11:16;;;;;;;8.05;5.63;;;9.00;99.90;;;;;;5102799;28;20027;-67
2021/05/23 03:13:44;;;;;;;6.88;5.40;;;9.00;99.90;;;;;;5121044;28;20059;-67
2021/05/23 03:16:12;;;;;;;7.57;5.40;;;9.00;99.90;;;;;;5120776;28;20023;-67
2021/05/23 03:18:40;;;;;;;8.68;5.68;;;9.00;99.90;;;;;;5121184;28;20427;-67
2021/05/23 03:21:08;;;;;;;8.27;5.88;;;9.00;99.90;;;;;;5120639;28;20123;-67
2021/05/23 03:23:35;;;;;;;9.20;6.05;;;8.90;99.90;;;;;;5120341;28;20028;-67
2021/05/23 03:26:03;;;;;;;10.05;6.38;;;8.90;99.90;;;;;;5119833;28;20028;-67
2021/05/23 03:28:31;;;;;;;11.57;6.53;;;8.90;99.90;;;;;;5119677;28;20023;-67
2021/05/23 03:30:59;;;;;;;9.55;6.72;;;8.90;99.90;;;;;;5101514;28;20027;-67
2021/05/23 03:33:27;;;;;;;9.35;5.93;;;8.90;99.90;;;;;;5120102;28;20132;-67
2021/05/23 03:35:54;;;;;;;9.43;6.65;;;8.90;99.90;;;;;;5119909;28;20115;-67
2021/05/23 03:38:21;;;;;;;11.10;7.25;;;8.80;99.90;;;;;;5119394;28;20020;-67
2021/05/23 03:40:50;;;;;;;9.55;7.07;;;8.80;99.90;;;;;;5120246;28;20024;-67
2021/05/23 03:43:18;;;;;;;11.98;6.65;;;8.80;99.90;;;;;;5119903;28;20020;-67
2021/05/23 03:45:48;;;;;;;9.38;6.15;;;8.80;99.90;;;;;;5101533;28;20118;-67
2021/05/23 03:48:19;;;;;;;11.07;7.00;;;8.80;99.90;;;;;;5102022;28;20023;-67
2021/05/23 03:50:47;;;;;;;10.38;6.65;;;8.80;99.90;;;;;;5101974;28;20024;-67
2021/05/23 03:53:15;;;;;;;10.05;6.80;;;8.80;99.90;;;;;;5119799;28;20061;-67
2021/05/23 03:55:43;;;;;;;9.63;6.07;;;8.80;99.90;;;;;;5119740;28;20039;-66
2021/05/23 03:58:10;;;;;;;9.02;6.15;;;8.80;99.90;;;;;;5119984;28;20024;-67
2021/05/23 04:00:37;;;;;;;9.88;5.53;;;8.80;99.90;;;;;;5119999;28;20022;-67
2021/05/23 04:03:05;;;;;;;8.32;4.70;;;8.80;99.90;;;;;;5120174;28;20030;-67
2021/05/23 04:05:33;;;;;;;5.88;4.35;;;8.80;99.90;;;;;;5100992;28;20426;-67
2021/05/23 04:08:02;;;;;;;7.28;4.57;;;8.80;99.90;;;;;;5119175;28;20073;-67
2021/05/23 04:10:41;;;;;;;8.50;4.82;;;8.80;99.90;;;;;;5119075;28;20016;-67
2021/05/23 04:13:10;;;;;;;5.70;3.95;;;8.80;99.90;;;;;;5118736;28;20034;-67
2021/05/23 04:15:38;;;;;;;5.63;3.95;;;8.80;99.90;;;;;;5118748;28;20062;-67
2021/05/23 04:18:06;;;;;;;5.28;3.85;;;8.80;99.90;;;;;;5119208;28;20469;-67
2021/05/23 04:20:34;;;;;;;5.78;4.13;;;8.70;99.90;;;;;;5118756;28;20096;-67
2021/05/23 04:23:02;;;;;;;6.95;4.53;;;8.70;99.90;;;;;;5119144;28;20119;-67
2021/05/23 04:25:29;;;;;;;6.85;3.83;;;8.80;99.90;;;;;;5118498;28;20027;-67
2021/05/23 04:27:57;;;;;;;5.75;4.00;;;8.80;99.90;;;;;;5101347;28;20311;-67
2021/05/23 04:30:27;;;;;;;6.63;4.63;;;8.80;99.90;;;;;;5119578;28;20016;-67
2021/05/23 04:32:56;;;;;;;6.93;4.63;;;8.80;99.90;;;;;;5119318;28;20103;-67
2021/05/23 04:35:25;;;;;;;7.40;4.78;;;8.80;99.90;;;;;;5101314;28;20061;-67
2021/05/23 04:37:54;;;;;;;9.10;5.97;;;8.80;99.90;;;;;;5119218;28;20436;-67
2021/05/23 04:40:22;;;;;;;9.00;5.68;;;8.90;99.90;;;;;;5101292;28;20027;-67
2021/05/23 04:42:49;;;;;;;9.80;6.15;;;8.90;99.90;;;;;;5119395;28;20358;-67
2021/05/23 04:45:17;;;;;;;8.40;5.20;;;8.90;99.90;;;;;;5100938;28;20051;-67
2021/05/23 04:47:45;;;;;;;6.60;4.60;;;8.90;99.90;;;;;;5118875;28;20407;-67
2021/05/23 04:50:13;;;;;;;6.00;4.32;;;8.90;99.90;;;;;;5117984;28;20023;-67
2021/05/23 04:52:41;;;;;;;4.60;3.50;;;8.90;99.90;;;;;;5118757;28;20149;-67
2021/05/23 04:55:10;;;;;;;5.07;3.20;;;8.90;99.90;;;;;;5117650;28;20118;-67
2021/05/23 04:57:37;;;;;;;6.22;3.78;;;9.00;99.90;;;;;;5118431;28;20026;-67
2021/05/23 05:00:08;;;;;;;6.13;3.90;;;9.00;99.90;;;;;;5099795;28;20415;-67
2021/05/23 05:02:37;;;;;;;5.05;3.47;;;9.00;99.90;;;;;;5118048;28;20297;-67
2021/05/23 05:05:07;;;;;;;7.38;3.70;;;9.00;99.90;;;;;;5117584;28;20100;-67
2021/05/23 05:07:35;;;;;;;4.13;2.75;;;9.00;99.90;;;;;;5116979;28;20026;-67
2021/05/23 05:10:04;;;;;;;5.30;3.30;;;9.10;99.90;;;;;;5118382;28;20024;-67
2021/05/23 05:12:32;;;;;;;7.18;3.60;;;9.10;99.90;;;;;;5119116;28;20407;-67
2021/05/23 05:14:59;;;;;;;5.82;3.50;;;9.10;99.90;;;;;;5118431;28;20102;-67
2021/05/23 05:17:27;;;;;;;6.65;3.70;;;9.10;99.90;;;;;;5119661;28;20307;-67
2021/05/23 05:19:55;;;;;;;5.50;3.58;;;9.10;99.90;;;;;;5118258;28;20023;-67
2021/05/23 05:22:23;;;;;;;7.13;4.15;;;9.20;99.90;;;;;;5118428;28;20059;-67
2021/05/23 05:24:51;;;;;;;5.80;4.05;;;9.10;99.90;;;;;;5118921;28;20023;-67
2021/05/23 05:27:20;;;;;;;9.50;4.10;;;9.10;99.90;;;;;;5118556;28;20315;-69
2021/05/23 05:29:50;;;;;;;6.63;3.85;;;9.10;99.90;;;;;;5117219;28;20019;-67
2021/05/23 05:32:18;;;;;;;7.15;3.95;;;9.20;99.90;;;;;;5117548;28;20095;-67
2021/05/23 05:34:45;;;;;;;5.25;3.65;;;9.20;99.90;;;;;;5117186;28;20042;-67
2021/05/23 05:37:13;;;;;;;5.63;3.72;;;9.20;99.90;;;;;;5117975;28;20026;-67
2021/05/23 05:39:41;;;;;;;5.47;3.60;;;9.20;99.90;;;;;;5117251;28;20442;-67
2021/05/23 05:42:09;;;;;;;6.32;3.75;;;9.20;99.90;;;;;;5117744;28;20019;-67
2021/05/23 05:44:37;;;;;;;9.68;4.15;;;9.20;99.90;;;;;;5117142;28;20031;-67
2021/05/23 05:47:04;;;;;;;4.80;3.22;;;9.10;99.90;;;;;;5117738;28;20027;-67
2021/05/23 05:49:32;;;;;;;7.38;3.70;;;9.10;99.90;;;;;;5117117;28;20016;-67
2021/05/23 05:51:59;;;;;;;6.03;4.18;;;9.10;99.90;;;;;;5117956;28;20024;-67
2021/05/23 05:54:27;;;;;;;6.70;3.55;;;9.10;99.90;;;;;;5117650;28;20039;-67
2021/05/23 05:56:57;;;;;;;4.97;3.03;;;9.10;99.90;;;;;;5118057;28;20031;-67
2021/05/23 05:59:24;;;;;;;4.32;2.80;;;9.20;99.90;;;;;;5118299;28;20020;-66
2021/05/23 06:01:52;;;;;;;4.50;2.88;;;9.20;99.90;;;;;;5100119;28;20020;-71
2021/05/23 06:04:20;;;;;;;5.30;3.10;;;9.20;99.90;;;;;;5118050;28;20058;-69
2021/05/23 06:06:48;;;;;;;4.95;2.95;;;9.30;99.90;;;;;;5117988;28;20492;-69
2021/05/23 06:09:16;;;;;;;4.95;3.17;;;9.30;99.90;;;;;;5117705;28;20020;-70
2021/05/23 06:11:44;;;;;;;3.78;2.78;;;9.30;99.90;;;;;;5098890;28;20026;-71
2021/05/23 06:14:12;;;;;;;7.32;3.50;;;9.30;99.90;;;;;;5117368;28;20019;-71
2021/05/23 06:16:39;;;;;;;5.05;2.80;;;9.30;99.90;;;;;;5117357;28;20054;-71
2021/05/23 06:19:07;;;;;;;5.93;3.35;;;9.30;99.90;;;;;;5100538;28;20023;-71
2021/05/23 06:21:34;;;;;;;5.65;3.50;;;9.30;99.90;;;;;;5102703;28;20327;-71
2021/05/23 06:24:01;;;;;;;6.45;3.35;;;9.30;99.90;;;;;;5102811;28;20073;-71
2021/05/23 06:26:29;;;;;;;7.05;3.70;;;9.30;99.90;;;;;;5121065;28;20054;-70
2021/05/23 06:28:56;;;;;;;5.95;3.40;;;9.30;99.90;;;;;;5102612;28;20391;-70
2021/05/23 06:31:24;;;;;;;6.60;3.33;;;9.30;99.90;;;;;;5121406;28;20031;-71
2021/05/23 06:33:52;;;;;;;4.72;3.10;;;9.30;99.90;;;;;;5121673;28;20019;-71
2021/05/23 06:36:19;;;;;;;4.57;2.70;;;9.40;99.90;;;;;;5121678;28;20020;-71
2021/05/23 06:38:47;;;;;;;4.95;2.75;;;9.40;99.90;;;;;;5121539;28;20023;-71
2021/05/23 06:41:14;;;;;;;3.67;2.20;;;9.40;99.90;;;;;;5122051;28;20293;-71
2021/05/23 06:43:42;;;;;;;4.80;2.60;;;9.40;99.90;;;;;;5121986;28;20307;-71
2021/05/23 06:46:09;;;;;;;4.47;2.42;;;9.50;99.90;;;;;;5121832;28;20027;-75
2021/05/23 06:48:37;;;;;;;4.47;2.13;;;9.50;99.90;;;;;;5121857;28;20012;-72
2021/05/23 06:51:05;;;;;;;4.30;2.15;;;9.50;99.90;;;;;;5121123;28;20030;-73
2021/05/23 06:53:32;;;;;;;2.78;1.77;;;9.60;99.90;;;;;;5098669;28;20048;-73
2021/05/23 06:56:01;;;;;;;4.50;2.08;;;9.60;99.90;;;;;;5100634;28;20382;-72
2021/05/23 06:58:29;;;;;;;6.63;2.20;;;9.70;99.90;;;;;;5100172;28;20016;-72
2021/05/23 07:00:56;;;;;;;3.20;1.90;;;9.80;99.90;;;;;;5100377;28;20020;-72
2021/05/23 07:03:25;;;;;;;3.88;2.33;;;9.80;99.90;;;;;;5099668;28;20378;-72
2021/05/23 07:05:53;;;;;;;4.30;2.50;;;9.80;99.90;;;;;;5099892;28;20028;-71
2021/05/23 07:08:21;;;;;;;4.47;2.00;;;9.80;99.90;;;;;;5099595;28;20024;-71
2021/05/23 07:10:49;;;;;;;3.25;2.28;;;9.80;99.90;;;;;;5100207;28;20027;-72
2021/05/23 07:13:17;;;;;;;4.28;2.33;;;9.80;99.90;;;;;;5099535;28;20016;-72
2021/05/23 07:15:44;;;;;;;4.68;2.15;;;9.80;99.90;;;;;;5101138;28;20020;-72
2021/05/23 07:18:12;;;;;;;3.90;2.17;;;9.80;99.90;;;;;;5100960;28;20417;-75
2021/05/23 07:20:40;;;;;;;3.22;1.92;;;9.90;99.90;;;;;;5100682;28;20016;-69
2021/05/23 07:23:09;;;;;;;5.38;2.13;;;9.90;99.90;;;;;;5100212;28;20024;-70
2021/05/23 07:25:37;;;;;;;3.03;1.85;;;9.90;99.90;;;;;;5100817;28;20024;-68
2021/05/23 07:28:06;;;;;;;3.08;1.90;;;9.90;99.90;;;;;;5100162;28;20481;-70
2021/05/23 07:30:34;;;;;;;3.40;2.00;;;9.80;99.90;;;;;;5099485;28;20031;-75
2021/05/23 07:33:03;;;;;;;3.90;1.98;;;9.90;99.90;;;;;;5100035;28;20022;-69
2021/05/23 07:35:30;;;;;;;3.08;2.17;;;9.90;99.90;;;;;;5099610;28;20055;-70
2021/05/23 07:37:58;;;;;;;2.72;1.60;;;10.00;99.90;;;;;;5099018;28;20389;-70
2021/05/23 07:40:27;;;;;;;2.35;1.63;;;10.00;99.90;;;;;;5099558;28;20028;-71
2021/05/23 07:42:56;;;;;;;3.67;2.03;;;10.00;99.90;;;;;;5099020;28;20024;-70
2021/05/23 07:45:24;;;;;;;2.50;1.73;;;10.10;99.90;;;;;;5099276;28;20375;-69
2021/05/23 07:47:53;;;;;;;3.10;1.55;;;10.10;99.90;;;;;;5098847;28;20020;-69
2021/05/23 07:50:20;;;;;;;2.38;1.67;;;10.20;99.90;;;;;;5099383;28;20361;-69
2021/05/23 07:52:48;;;;;;;2.83;1.95;;;10.20;99.90;;;;;;5099357;28;20012;-69
2021/05/23 07:55:15;;;;;;;4.70;2.45;;;10.20;99.90;;;;;;5116678;28;20395;-71
2021/05/23 07:57:43;;;;;;;4.75;1.92;;;10.20;99.90;;;;;;5120553;28;20027;-71
2021/05/23 08:00:12;;;;;;;3.72;2.00;;;10.20;99.90;;;;;;5120516;28;20052;-71
2021/05/23 08:02:40;;;;;;;3.20;2.22;;;10.10;99.90;;;;;;5119928;28;20051;-71
2021/05/23 08:05:07;;;;;;;3.05;2.10;;;10.00;99.90;;;;;;5120366;28;20406;-71
2021/05/23 08:07:35;;;;;;;3.22;1.85;;;9.90;99.90;;;;;;5119733;28;20435;-71
2021/05/23 08:10:03;;;;;;;3.67;2.00;;;9.90;99.90;;;;;;5119776;28;20019;-71
2021/05/23 08:12:32;;;;;;;2.85;1.90;;;9.80;99.90;;;;;;5119780;28;20027;-71
2021/05/23 08:15:01;;;;;;;4.40;1.77;;;9.90;99.90;;;;;;5119791;28;20088;-68
2021/05/23 08:17:28;;;;;;;3.15;1.35;;;9.90;99.90;;;;;;5118756;28;20034;-70
2021/05/23 08:19:56;;;;;;;2.65;1.67;;;10.00;99.90;;;;;;5118579;28;20020;-72
2021/05/23 08:22:23;;;;;;;3.15;1.80;;;10.00;99.90;;;;;;5100975;28;20327;-71
2021/05/23 08:24:55;;;;;;;2.40;1.50;;;10.10;99.90;;;;;;5118533;28;20047;-69
2021/05/23 08:27:22;;;;;;;3.20;1.88;;;10.10;99.90;;;;;;5100271;28;20034;-69
2021/05/23 08:29:51;;;;;;;2.97;1.35;;;10.10;99.90;;;;;;5118464;28;20023;-70
2021/05/23 08:32:22;;;;;;;2.45;1.58;;;10.00;99.90;;;;;;5118562;28;20473;-70
2021/05/23 08:34:51;;;;;;;2.30;1.42;;;10.00;99.90;;;;;;5119227;28;20023;-70
2021/05/23 08:37:19;;;;;;;2.92;1.90;;;10.00;99.90;;;;;;5119343;28;20051;-70
2021/05/23 08:39:47;;;;;;;3.20;1.90;;;9.90;99.90;;;;;;5119741;28;20024;-71
2021/05/23 08:42:16;;;;;;;3.72;1.95;;;9.90;99.90;;;;;;5118364;28;20051;-69
2021/05/23 08:44:44;;;;;;;2.58;1.50;;;10.00;99.90;;;;;;5119162;28;20054;-70
2021/05/23 08:47:14;;;;;;;2.45;1.60;;;10.10;99.90;;;;;;5118983;28;20027;-73
2021/05/23 08:49:41;;;;;;;2.88;1.67;;;10.20;99.90;;;;;;5100826;28;20087;-73
2021/05/23 08:52:10;;;;;;;2.58;1.40;;;10.20;99.90;;;;;;5119075;28;20015;-70
2021/05/23 08:54:42;;;;;;;2.83;1.92;;;10.30;99.90;;;;;;5118339;28;20483;-73
2021/05/23 08:57:11;;;;;;;3.00;1.80;;;10.40;99.90;;;;;;5100113;28;20028;-71
2021/05/23 08:59:39;;;;;;;3.22;1.60;;;10.50;99.90;;;;;;5117928;28;20110;-70
2021/05/23 09:02:08;;;;;;;2.40;1.40;;;10.50;99.90;;;;;;5118623;28;20315;-70
2021/05/23 09:04:46;;;;;;;3.63;2.08;;;10.60;99.90;;;;;;5100552;28;20114;-70
2021/05/23 09:07:14;;;;;;;1.98;1.30;;;10.50;99.90;;;;;;5117684;28;20144;-71
2021/05/23 09:09:45;;;;;;;1.98;1.20;;;10.60;99.90;;;;;;5117651;28;20020;-71
2021/05/23 09:12:17;;;;;;;1.50;0.82;;;10.50;99.90;;;;;;5117936;28;20026;-71
2021/05/23 09:14:49;;;;;;;3.83;1.52;;;10.50;99.90;;;;;;5118238;28;20357;-71
2021/05/23 09:17:25;;;;;;;1.63;1.13;;;10.40;99.90;;;;;;5100253;28;20055;-71
2021/05/23 09:19:55;;;;;;;1.30;0.80;;;10.30;99.90;;;;;;5100357;28;20308;-71
2021/05/23 09:22:28;;;;;;;1.90;0.95;;;10.30;99.90;;;;;;5118929;28;20032;-71
2021/05/23 09:25:04;;;;;;;2.75;0.90;;;10.40;99.90;;;;;;5118645;28;20023;-70
2021/05/23 09:27:33;;;;;;;3.35;0.77;;;10.30;99.90;;;;;;5118324;28;20415;-72
2021/05/23 09:30:13;;;;;;;1.48;0.70;;;10.20;99.90;;;;;;5118899;28;20023;-71
2021/05/23 09:32:44;;;;;;;1.73;0.90;;;10.00;99.90;;;;;;5118666;28;20307;-71
2021/05/23 09:35:16;;;;;;;2.80;1.40;;;9.80;99.90;;;;;;5118099;28;20022;-71
2021/05/23 09:37:48;;;;;;;2.30;1.13;;;9.70;99.90;;;;;;5117286;28;20041;-71
2021/05/23 09:40:18;;;;;;;2.58;1.40;;;9.70;99.90;;;;;;5117700;28;20084;-71
2021/05/23 09:42:50;;;;;;;2.65;1.20;;;9.70;99.90;;;;;;5117088;28;20034;-70
2021/05/23 09:45:20;;;;;;;1.50;1.00;;;9.70;99.90;;;;;;5117643;28;20015;-70
2021/05/23 09:47:59;;;;;;;2.33;0.88;;;9.70;99.90;;;;;;5117457;28;20051;-71
2021/05/23 09:50:39;;;;;;;1.55;1.00;;;9.80;99.90;;;;;;5117034;28;20020;-71
2021/05/23 09:53:35;;;;;;;1.40;0.80;;;9.90;99.90;;;;;;5117038;28;20316;-70
2021/05/23 09:56:04;;;;;;;1.52;0.90;;;10.00;99.90;;;;;;5076767;28;20046;-71
2021/05/23 09:58:36;;;;;;;1.73;1.00;;;10.00;99.90;;;;;;5076252;28;20371;-70
2021/05/23 10:01:23;;;;;;;3.13;1.10;;;10.00;99.90;;;;;;5077387;28;20086;-69
2021/05/23 10:03:53;;;;;;;4.93;1.27;;;9.90;99.90;;;;;;5076296;28;20032;-71
2021/05/23 10:06:29;;;;;;;1.48;0.90;;;9.80;99.90;;;;;;5077570;28;20024;-70
2021/05/23 10:08:58;;;;;;;5.38;1.77;;;9.70;99.90;;;;;;5077866;28;20405;-70
2021/05/23 10:11:26;;;;;;;4.13;1.80;;;9.60;99.90;;;;;;5077813;28;20401;-70
2021/05/23 10:13:54;;;;;;;4.78;2.20;;;9.50;99.90;;;;;;5077154;28;20013;-71
2021/05/23 10:16:22;;;;;;;5.43;1.95;;;9.70;99.90;;;;;;5077618;28;20021;-71
2021/05/23 10:18:50;;;;;;;3.15;1.88;;;10.00;99.90;;;;;;5076287;28;20444;-71
2021/05/23 10:21:18;;;;;;;5.13;1.95;;;10.50;99.90;;;;;;5076181;28;20024;-71
2021/05/23 10:23:54;;;;;;;4.38;2.13;;;10.90;99.90;;;;;;5076700;28;20024;-70
2021/05/23 10:26:27;;;;;;;6.60;2.63;;;11.40;99.90;;;;;;5076081;28;20029;-69
2021/05/23 10:28:55;;;;;;;5.82;1.77;;;11.60;99.90;;;;;;5076667;28;20013;-70
2021/05/23 10:31:36;;;;;;;4.82;2.28;;;11.70;99.90;;;;;;5076106;28;20024;-70
2021/05/23 10:34:04;;;;;;;6.60;1.92;;;11.50;99.90;;;;;;5076102;28;20020;-71
2021/05/23 10:36:37;;;;;;;3.08;1.65;;;11.40;99.90;;;;;;5075574;28;20439;-70
2021/05/23 10:39:08;;;;;;;4.32;1.90;;;11.30;99.90;;;;;;5076986;28;20040;-70
2021/05/23 10:41:37;;;;;;;3.83;1.77;;;11.20;99.90;;;;;;5077387;28;20098;-69
2021/05/23 10:44:07;;;;;;;5.45;2.13;;;11.20;99.90;;;;;;5076044;28;20024;-70
2021/05/23 10:46:51;;;;;;;6.03;1.50;;;11.20;99.90;;;;;;5075933;28;20029;-70
2021/05/23 10:49:19;;;;;;;5.43;2.65;;;11.30;99.90;;;;;;5077410;28;20017;-69
2021/05/23 10:51:55;;;;;;;4.18;1.60;;;11.40;99.90;;;;;;5075758;28;20021;-69
2021/05/23 10:54:23;;;;;;;2.30;1.70;;;11.50;99.90;;;;;;5096863;28;20083;-70
2021/05/23 10:57:02;;;;;;;4.93;1.75;;;11.70;99.90;;;;;;5117289;28;20024;-73
2021/05/23 10:59:32;;;;;;;3.50;1.85;;;11.80;99.90;;;;;;5115705;28;20031;-69
2021/05/23 11:02:00;;;;;;;8.65;1.98;;;11.90;99.90;;;;;;5116664;28;20434;-69
2021/05/23 11:04:42;;;;;;;7.15;2.13;;;12.00;99.90;;;;;;5098197;28;20419;-70
2021/05/23 11:07:11;;;;;;;4.70;2.10;;;12.10;99.90;;;;;;5119632;28;20039;-70
2021/05/23 11:09:43;;;;;;;8.82;3.08;;;12.40;99.90;;;;;;5120017;28;20023;-71
2021/05/23 11:12:16;;;;;;;4.03;1.85;;;12.60;99.90;;;;;;5119991;28;20070;-70
2021/05/23 11:14:55;;;;;;;6.93;1.67;;;12.90;99.90;;;;;;5101849;28;20115;-70
2021/05/23 11:17:23;;;;;;;5.40;1.85;;;13.10;99.90;;;;;;5101925;28;20032;-70
2021/05/23 11:19:51;;;;;;;4.82;2.10;;;13.10;99.90;;;;;;5102623;28;20114;-69
2021/05/23 11:22:19;;;;;;;3.90;1.52;;;13.20;99.90;;;;;;5121326;28;20015;-70
2021/05/23 11:24:52;;;;;;;3.45;1.58;;;13.30;99.90;;;;;;5120637;28;20080;-69
2021/05/23 11:27:21;;;;;;;4.68;1.65;;;13.40;99.90;;;;;;5119864;28;20035;-69
2021/05/23 11:29:52;;;;;;;5.72;1.60;;;13.60;99.90;;;;;;5121178;28;20020;-70
2021/05/23 11:32:22;;;;;;;4.93;1.30;;;13.90;99.90;;;;;;5120576;28;20019;-70
2021/05/23 11:34:50;;;;;;;5.40;1.52;;;14.20;99.90;;;;;;5101592;28;20019;-69
2021/05/23 11:37:17;;;;;;;6.30;1.60;;;14.40;99.90;;;;;;5101334;28;20411;-70
2021/05/23 11:39:45;;;;;;;2.60;1.25;;;14.70;99.90;;;;;;5119990;28;20035;-70
2021/05/23 11:42:12;;;;;;;5.28;1.50;;;14.90;99.90;;;;;;5120974;28;20048;-70
2021/05/23 11:44:47;;;;;;;3.65;1.05;;;15.00;99.90;;;;;;5120951;28;20053;-70
2021/05/23 11:47:17;;;;;;;4.32;1.00;;;14.90;99.70;;;;;;5102149;28;20034;-70
2021/05/23 11:49:47;;;;;;;2.35;0.90;;;14.60;99.40;;;;;;5120305;28;20031;-70
2021/05/23 11:52:18;;;;;;;5.65;0.93;;;14.40;99.90;;;;;;5120906;28;20023;-70
2021/05/23 11:54:58;;;;;;;2.75;1.20;;;14.30;99.90;;;;;;5098469;28;20036;-70
2021/05/23 11:57:25;;;;;;;7.97;1.48;;;14.40;99.90;;;;;;5099514;28;20417;-70
2021/05/23 11:59:54;;;;;;;3.13;0.80;;;14.40;99.50;;;;;;5099314;28;20454;-70
2021/05/23 12:02:29;;;;;;;4.88;1.42;;;14.60;99.90;;;;;;5099246;28;20028;-70
2021/05/23 12:05:03;;;;;;;4.70;0.77;;;14.70;99.90;;;;;;5098220;28;20097;-70
2021/05/23 12:07:42;;;;;;;4.65;0.90;;;14.80;98.90;;;;;;5098547;28;20035;-70
2021/05/23 12:10:10;;;;;;;3.17;0.85;;;15.00;97.00;;;;;;5098764;28;20024;-70
2021/05/23 12:12:38;;;;;;;7.75;0.98;;;15.10;96.30;;;;;;5098772;28;20098;-70
2021/05/23 12:15:07;;;;;;;3.10;0.73;;;15.10;94.00;;;;;;5098766;28;20131;-70
2021/05/23 12:17:38;;;;;;;2.85;0.60;;;15.20;93.70;;;;;;5097133;28;20024;-69
2021/05/23 12:20:11;;;;;;;2.38;0.47;;;15.30;94.10;;;;;;5099474;28;20110;-70
2021/05/23 12:22:39;;;;;;;3.50;0.70;;;15.50;93.70;;;;;;5099253;28;20016;-70
2021/05/23 12:25:08;;;;;;;4.07;0.70;;;15.80;92.80;;;;;;5099253;28;20020;-70
2021/05/23 12:27:37;;;;;;;3.38;0.50;;;16.20;91.40;;;;;;5099612;28;20028;-70
2021/05/23 12:30:17;;;;;;;4.57;0.77;;;16.30;90.40;;;;;;5099817;28;20017;-69
2021/05/23 12:33:05;;;;;;;3.25;0.65;;;16.40;91.20;;;;;;5099326;28;20422;-70
2021/05/23 12:35:35;;;;;;;2.35;0.60;;;16.30;85.30;;;;;;5099237;28;20030;-70
2021/05/23 12:38:16;;;;;;;3.65;0.90;;;16.00;82.90;;;;;;5098946;28;20024;-70
2021/05/23 12:40:49;;;;;;;7.00;0.93;;;15.70;82.70;;;;;;5098673;28;20024;-70
2021/05/23 12:43:20;;;;;;;6.85;1.20;;;15.80;85.60;;;;;;5098112;28;20020;-70
2021/05/23 12:46:06;;;;;;;2.33;0.70;;;16.40;82.40;;;;;;5097750;28;20046;-70
2021/05/23 12:48:35;;;;;;;3.45;0.63;;;17.20;82.90;;;;;;5113702;28;20489;-70
2021/05/23 12:51:25;;;;;;;4.15;0.63;;;17.90;79.10;;;;;;5113580;28;20024;-70
2021/05/23 12:53:55;;;;;;;2.78;0.80;;;18.50;72.90;;;;;;5103637;28;20086;-70
2021/05/23 12:56:36;;;;;;;3.58;0.90;;;18.30;71.20;;;;;;5118638;28;20201;-70
2021/05/23 12:59:19;;;;;;;8.55;2.42;;;17.70;73.80;;;;;;5118265;28;20020;-70
2021/05/23 13:01:50;;;;;;;7.10;1.02;;;17.20;75.40;;;;;;5119096;28;20088;-70
2021/05/23 13:04:20;;;;;;;5.65;0.85;;;16.70;77.20;;;;;;5100768;28;20027;-70
2021/05/23 13:07:00;;;;;;;4.43;0.90;;;16.40;75.10;;;;;;5118799;28;20024;-70